Time;durP1;ratioP1;P1;durP2;ratioP2;P2;SDS_P1;SDS_P2;PMS_P1;PMS_P2;Temp;Humidity;BMP_temperature;BMP_pressure;BME280_temperature;BME280_humidity;BME280_pressure;Samples;Min_cycle;Max_cycle;Signal;HPM_P1;HPM_P2
2023/07/04 00:01:20;;;;;;;6.95;4.85;;;27.90;54.40;;;;;;5111631;28;20032;-77
2023/07/04 00:03:50;;;;;;;5.20;4.18;;;28.10;54.90;;;;;;5111797;28;20032;-77
2023/07/04 00:06:17;;;;;;;6.57;4.15;;;28.00;54.90;;;;;;5111877;28;20050;-77
2023/07/04 00:08:44;;;;;;;5.57;4.45;;;27.90;54.40;;;;;;5111584;28;20035;-78
2023/07/04 00:11:11;;;;;;;6.53;4.65;;;28.00;54.90;;;;;;5111738;28;20069;-78
2023/07/04 00:13:38;;;;;;;5.05;4.30;;;27.90;54.30;;;;;;5110518;28;20110;-77
2023/07/04 00:16:10;;;;;;;7.50;4.97;;;28.00;54.90;;;;;;5111500;28;20448;-77
2023/07/04 00:18:38;;;;;;;6.35;5.00;;;28.00;54.80;;;;;;5111469;28;20032;-78
2023/07/04 00:21:07;;;;;;;7.32;4.80;;;27.90;54.30;;;;;;5110285;28;20049;-78
2023/07/04 00:23:35;;;;;;;8.00;5.28;;;28.00;54.80;;;;;;5111650;28;20032;-77
2023/07/04 00:26:04;;;;;;;6.68;4.93;;;28.00;54.80;;;;;;5111671;28;20028;-78
2023/07/04 00:28:33;;;;;;;5.85;4.60;;;28.00;54.90;;;;;;5096832;28;20391;-77
2023/07/04 00:31:02;;;;;;;6.72;5.00;;;27.90;54.30;;;;;;5114667;28;20023;-77
2023/07/04 00:33:30;;;;;;;7.00;4.90;;;28.00;54.80;;;;;;5114218;28;20495;-77
2023/07/04 00:36:06;;;;;;;7.72;5.32;;;28.00;54.80;;;;;;5096643;28;20043;-77
2023/07/04 00:38:33;;;;;;;7.57;4.68;;;27.90;54.40;;;;;;5115223;28;20043;-77
2023/07/04 00:41:04;;;;;;;9.32;5.65;;;27.90;54.40;;;;;;5115125;28;20031;-77
2023/07/04 00:43:46;;;;;;;7.28;5.05;;;27.90;54.40;;;;;;5114219;28;20031;-77
2023/07/04 00:46:15;;;;;;;6.38;5.68;;;28.00;55.00;;;;;;5114156;28;20755;-77
2023/07/04 00:48:44;;;;;;;10.95;6.90;;;27.90;54.50;;;;;;5115118;28;20071;-77
2023/07/04 00:51:21;;;;;;;7.43;5.85;;;27.90;54.40;;;;;;5113819;28;20047;-77
2023/07/04 00:53:53;;;;;;;7.40;5.22;;;28.00;55.00;;;;;;5115294;28;20510;-78
2023/07/04 00:56:25;;;;;;;8.63;4.75;;;28.00;55.00;;;;;;5114945;28;20036;-78
2023/07/04 00:58:55;;;;;;;7.95;5.53;;;28.00;55.00;;;;;;5114725;28;20047;-77
2023/07/04 01:01:21;;;;;;;9.98;4.85;;;28.00;55.00;;;;;;5096686;28;20344;-77
2023/07/04 01:03:48;;;;;;;7.10;5.03;;;27.80;54.40;;;;;;5113576;28;20391;-78
2023/07/04 01:06:49;;;;;;;8.68;5.43;;;28.00;54.90;;;;;;5115307;28;20035;-78
2023/07/04 01:09:17;;;;;;;7.30;4.97;;;28.00;54.90;;;;;;5071171;28;20072;-77
2023/07/04 01:11:45;;;;;;;9.98;5.03;;;28.00;54.90;;;;;;5055108;28;20037;-77
2023/07/04 01:14:38;;;;;;;8.20;5.50;;;28.00;54.90;;;;;;5071583;28;20785;-77
2023/07/04 01:17:06;;;;;;;7.53;5.47;;;28.00;54.90;;;;;;5011504;28;20103;-77
2023/07/04 01:19:35;;;;;;;8.80;5.40;;;28.00;54.90;;;;;;5011668;28;20302;-78
2023/07/04 01:22:27;;;;;;;9.10;5.10;;;28.00;54.90;;;;;;5011816;28;20053;-78
2023/07/04 01:24:59;;;;;;;13.18;4.95;;;27.90;54.30;;;;;;5011660;28;20100;-77
2023/07/04 01:27:27;;;;;;;7.78;5.75;;;27.90;54.30;;;;;;5011452;28;20056;-77
2023/07/04 01:29:54;;;;;;;6.18;5.03;;;28.00;54.90;;;;;;5011742;28;20038;-78
2023/07/04 01:32:22;;;;;;;8.90;5.47;;;28.00;54.90;;;;;;4995350;28;20101;-77
2023/07/04 01:34:48;;;;;;;9.27;5.70;;;28.00;54.90;;;;;;5011608;28;20050;-76
2023/07/04 01:37:18;;;;;;;8.85;5.80;;;27.90;54.40;;;;;;5011235;28;20065;-78
2023/07/04 01:39:44;;;;;;;8.38;5.78;;;27.90;54.40;;;;;;4994007;28;20046;-77
2023/07/04 01:42:10;;;;;;;9.20;5.53;;;28.00;54.90;;;;;;5011406;28;20034;-78
2023/07/04 01:44:38;;;;;;;9.65;5.82;;;27.90;54.40;;;;;;4994614;28;20153;-77
2023/07/04 01:47:05;;;;;;;7.80;5.70;;;27.90;54.40;;;;;;5070491;28;20048;-78
2023/07/04 01:49:31;;;;;;;8.25;5.45;;;27.90;54.40;;;;;;5053939;28;20045;-77
2023/07/04 01:51:58;;;;;;;8.85;5.53;;;27.90;54.40;;;;;;5054377;28;20054;-78
2023/07/04 01:54:25;;;;;;;12.23;5.85;;;27.90;54.40;;;;;;5102482;28;20058;-78
2023/07/04 01:56:52;;;;;;;5.57;4.60;;;27.90;54.40;;;;;;5111713;28;20134;-78
2023/07/04 01:59:20;;;;;;;5.85;5.05;;;27.90;54.50;;;;;;5112580;28;20077;-78
2023/07/04 02:01:47;;;;;;;9.48;5.30;;;28.00;55.00;;;;;;5113796;28;20110;-77
2023/07/04 02:04:13;;;;;;;6.82;4.88;;;28.00;55.00;;;;;;5112448;28;20036;-78
2023/07/04 02:06:39;;;;;;;6.85;5.50;;;27.90;54.50;;;;;;5112397;28;20054;-77
2023/07/04 02:09:06;;;;;;;8.88;4.75;;;27.90;54.50;;;;;;5112396;28;20059;-77
2023/07/04 02:11:32;;;;;;;6.57;5.13;;;27.90;54.50;;;;;;5112362;28;20034;-78
2023/07/04 02:14:00;;;;;;;9.52;5.65;;;28.00;55.00;;;;;;5113670;28;20024;-78
2023/07/04 02:16:26;;;;;;;6.88;5.18;;;28.00;55.00;;;;;;5112070;28;20040;-77
2023/07/04 02:18:52;;;;;;;10.50;5.55;;;28.00;55.00;;;;;;5112007;28;20093;-78
2023/07/04 02:21:18;;;;;;;10.73;5.85;;;28.20;55.00;;;;;;5113644;28;20036;-77
2023/07/04 02:23:44;;;;;;;8.20;5.70;;;27.90;54.40;;;;;;5113655;28;20027;-77
2023/07/04 02:26:12;;;;;;;7.60;5.25;;;28.00;55.00;;;;;;5113439;28;20047;-78
2023/07/04 02:28:39;;;;;;;9.07;5.30;;;28.00;55.00;;;;;;5111914;28;20047;-78
2023/07/04 02:31:06;;;;;;;6.50;5.30;;;28.00;54.90;;;;;;5111857;28;20032;-78
2023/07/04 02:33:32;;;;;;;7.75;5.72;;;28.00;54.90;;;;;;5094676;28;20430;-77
2023/07/04 02:35:58;;;;;;;8.38;6.15;;;27.90;54.40;;;;;;5112068;28;20043;-77
2023/07/04 02:38:24;;;;;;;7.45;5.30;;;28.00;54.90;;;;;;5094922;28;20040;-78
2023/07/04 02:40:51;;;;;;;8.48;5.53;;;27.90;54.40;;;;;;5111908;28;20081;-77
2023/07/04 02:43:18;;;;;;;8.88;6.25;;;27.80;54.40;;;;;;5111813;28;20023;-77
2023/07/04 02:45:44;;;;;;;9.10;5.68;;;27.90;54.40;;;;;;5111646;28;20482;-77
2023/07/04 02:48:14;;;;;;;8.82;5.30;;;27.80;54.40;;;;;;5094867;28;20387;-78
2023/07/04 02:50:40;;;;;;;8.75;6.10;;;27.90;54.40;;;;;;5112661;27;20034;-78
2023/07/04 02:53:06;;;;;;;9.45;6.07;;;28.00;55.00;;;;;;5094816;28;20039;-78
2023/07/04 02:55:33;;;;;;;8.27;5.00;;;28.00;55.00;;;;;;5112826;28;20437;-78
2023/07/04 02:57:59;;;;;;;11.10;6.05;;;27.80;54.50;;;;;;5111165;28;20035;-78
2023/07/04 03:00:25;;;;;;;6.88;5.32;;;27.90;54.50;;;;;;5111178;28;20038;-78
2023/07/04 03:02:51;;;;;;;11.02;5.65;;;27.90;54.50;;;;;;5112817;28;20039;-77
2023/07/04 03:05:17;;;;;;;9.85;6.03;;;28.00;55.00;;;;;;5111255;28;20062;-77
2023/07/04 03:07:43;;;;;;;7.72;5.40;;;28.00;55.10;;;;;;5111321;28;20034;-78
2023/07/04 03:10:14;;;;;;;8.60;5.60;;;28.00;55.10;;;;;;5109724;28;20047;-78
2023/07/04 03:12:40;;;;;;;7.90;5.18;;;28.00;55.10;;;;;;5089373;28;20135;-77
2023/07/04 03:15:07;;;;;;;14.65;6.28;;;27.90;54.50;;;;;;5072674;28;20123;-77
2023/07/04 03:17:36;;;;;;;6.65;5.70;;;28.00;55.10;;;;;;5072503;28;20113;-78
2023/07/04 03:20:10;;;;;;;6.95;5.70;;;28.00;55.10;;;;;;5089491;28;20088;-77
2023/07/04 03:22:38;;;;;;;7.57;5.82;;;27.90;54.50;;;;;;5089112;28;20043;-77
2023/07/04 03:25:05;;;;;;;8.63;5.55;;;28.00;55.00;;;;;;5089338;28;20098;-77
2023/07/04 03:27:32;;;;;;;9.95;5.88;;;28.00;55.00;;;;;;5089035;28;20474;-78
2023/07/04 03:29:58;;;;;;;6.85;5.10;;;28.00;55.00;;;;;;5072385;28;20048;-77
2023/07/04 03:32:24;;;;;;;5.85;5.07;;;28.00;55.00;;;;;;5072236;28;20109;-77
2023/07/04 03:34:50;;;;;;;7.57;5.97;;;27.90;54.40;;;;;;5072568;28;20032;-77
2023/07/04 03:37:16;;;;;;;9.23;5.60;;;27.80;54.40;;;;;;5072106;28;20040;-78
2023/07/04 03:39:43;;;;;;;8.77;5.65;;;27.90;54.40;;;;;;5055571;28;20032;-77
2023/07/04 03:42:09;;;;;;;7.93;6.05;;;28.00;55.00;;;;;;5089023;28;20048;-77
2023/07/04 03:44:35;;;;;;;10.65;5.40;;;28.00;54.90;;;;;;5105718;28;20464;-77
2023/07/04 03:47:01;;;;;;;6.63;4.97;;;27.80;54.40;;;;;;5110951;28;20080;-78
2023/07/04 03:49:27;;;;;;;7.03;5.50;;;27.90;54.40;;;;;;5110199;28;20503;-77
2023/07/04 03:51:53;;;;;;;10.77;5.30;;;28.00;54.90;;;;;;5093508;28;20036;-77
2023/07/04 03:54:19;;;;;;;9.60;5.20;;;27.90;54.40;;;;;;5129420;27;20058;-77
2023/07/04 03:56:46;;;;;;;9.35;5.68;;;28.00;55.00;;;;;;5112648;28;20089;-78
2023/07/04 03:59:12;;;;;;;11.70;6.00;;;28.00;55.00;;;;;;5112415;28;20035;-77
2023/07/04 04:01:38;;;;;;;8.60;6.65;;;27.90;54.40;;;;;;5112238;28;20110;-77
2023/07/04 04:04:04;;;;;;;14.80;5.70;;;27.90;54.50;;;;;;5129581;28;20139;-77
2023/07/04 04:06:30;;;;;;;8.40;5.80;;;28.00;55.00;;;;;;5129747;28;20039;-77
2023/07/04 04:08:56;;;;;;;9.98;6.75;;;27.90;54.50;;;;;;5129699;28;20085;-77
2023/07/04 04:11:22;;;;;;;9.07;5.78;;;28.00;55.00;;;;;;5129688;28;20394;-77
2023/07/04 04:13:48;;;;;;;14.27;7.07;;;28.00;55.00;;;;;;5112376;28;20054;-77
2023/07/04 04:16:14;;;;;;;7.65;5.88;;;28.00;55.00;;;;;;5129562;28;20850;-77
2023/07/04 04:18:40;;;;;;;8.23;6.13;;;28.00;55.10;;;;;;5129598;28;20034;-77
2023/07/04 04:21:07;;;;;;;9.15;6.53;;;28.10;55.00;;;;;;5129540;28;20414;-78
2023/07/04 04:23:33;;;;;;;8.30;5.82;;;28.00;55.00;;;;;;5129732;28;20039;-77
2023/07/04 04:26:00;;;;;;;8.18;5.57;;;28.00;55.00;;;;;;5115085;28;20388;-77
2023/07/04 04:28:26;;;;;;;9.38;6.43;;;28.00;55.00;;;;;;5110499;28;20138;-77
2023/07/04 04:30:52;;;;;;;12.98;6.68;;;28.10;55.00;;;;;;5111707;28;20028;-77
2023/07/04 04:33:19;;;;;;;10.68;7.18;;;28.10;54.90;;;;;;5111608;28;20035;-77
2023/07/04 04:35:45;;;;;;;9.13;7.07;;;28.10;54.90;;;;;;5111390;28;20112;-78
2023/07/04 04:38:11;;;;;;;14.63;7.10;;;28.00;54.90;;;;;;5111128;28;20090;-77
2023/07/04 04:40:38;;;;;;;6.82;5.80;;;28.00;54.90;;;;;;5111423;28;20106;-77
2023/07/04 04:43:04;;;;;;;11.90;6.55;;;27.90;54.30;;;;;;5111412;28;20081;-78
2023/07/04 04:45:30;;;;;;;9.50;6.72;;;28.00;54.90;;;;;;5111441;28;20052;-78
2023/07/04 04:47:57;;;;;;;13.38;8.27;;;27.90;54.40;;;;;;5093213;28;20050;-78
2023/07/04 04:50:25;;;;;;;10.60;7.32;;;27.90;54.40;;;;;;5111398;28;20028;-77
2023/07/04 04:52:52;;;;;;;12.40;7.30;;;28.00;54.90;;;;;;5111245;28;20110;-77
2023/07/04 04:55:18;;;;;;;15.27;6.88;;;28.00;55.00;;;;;;5111115;28;20110;-77
2023/07/04 04:57:44;;;;;;;10.02;6.85;;;28.00;55.00;;;;;;5109962;28;20447;-77
2023/07/04 05:00:12;;;;;;;10.48;7.60;;;28.00;55.00;;;;;;5111076;28;20038;-77
2023/07/04 05:02:38;;;;;;;11.07;6.07;;;27.90;54.40;;;;;;5111430;28;20063;-77
2023/07/04 05:05:04;;;;;;;11.38;7.13;;;27.80;54.40;;;;;;5108755;28;20588;-77
2023/07/04 05:07:31;;;;;;;10.68;7.43;;;27.80;54.50;;;;;;5110041;28;20120;-77
2023/07/04 05:10:02;;;;;;;10.88;6.47;;;27.90;54.40;;;;;;5111270;28;20088;-77
2023/07/04 05:12:28;;;;;;;10.00;6.43;;;27.90;54.50;;;;;;5111260;28;20032;-77
2023/07/04 05:14:54;;;;;;;7.65;4.95;;;27.90;54.50;;;;;;5113809;28;20032;-77
2023/07/04 05:17:20;;;;;;;5.60;3.88;;;27.90;54.40;;;;;;5114731;28;20395;-77
2023/07/04 05:19:50;;;;;;;4.55;3.63;;;27.90;54.50;;;;;;5114774;27;20085;-77
2023/07/04 05:22:17;;;;;;;7.13;5.55;;;27.90;54.50;;;;;;5114560;28;20027;-77
2023/07/04 05:24:43;;;;;;;7.30;4.93;;;27.80;54.60;;;;;;5114803;28;20073;-77
2023/07/04 05:27:10;;;;;;;9.25;5.90;;;28.00;55.20;;;;;;5114664;28;20081;-77
2023/07/04 05:29:36;;;;;;;9.13;5.80;;;27.90;54.70;;;;;;5114335;28;20114;-78
2023/07/04 05:32:02;;;;;;;6.50;5.47;;;27.90;54.60;;;;;;5114378;28;20067;-77
2023/07/04 05:34:29;;;;;;;5.90;4.82;;;27.90;54.60;;;;;;5095152;28;20063;-77
2023/07/04 05:36:55;;;;;;;5.40;4.72;;;27.90;54.60;;;;;;5114130;28;20502;-77
2023/07/04 05:39:21;;;;;;;5.57;4.65;;;28.00;55.20;;;;;;5114301;28;20032;-77
2023/07/04 05:41:46;;;;;;;9.18;5.05;;;28.00;55.20;;;;;;5114097;28;20061;-77
2023/07/04 05:44:13;;;;;;;3.72;3.13;;;28.00;55.20;;;;;;5114369;28;20056;-77
2023/07/04 05:46:39;;;;;;;2.67;2.35;;;28.00;55.10;;;;;;5114080;28;20032;-77
2023/07/04 05:49:07;;;;;;;5.47;3.50;;;27.90;54.60;;;;;;5094712;28;20050;-77
2023/07/04 05:51:33;;;;;;;8.75;4.25;;;28.10;55.10;;;;;;5112722;28;20058;-77
2023/07/04 05:53:59;;;;;;;5.57;4.47;;;28.10;55.10;;;;;;5112901;28;20067;-77
2023/07/04 05:56:28;;;;;;;7.10;5.43;;;28.10;55.00;;;;;;5112831;28;20063;-77
2023/07/04 05:58:56;;;;;;;5.03;4.35;;;28.10;55.00;;;;;;5113711;28;20282;-78
2023/07/04 06:01:24;;;;;;;8.07;4.90;;;28.10;55.00;;;;;;5112470;28;20054;-77
2023/07/04 06:03:52;;;;;;;7.72;5.32;;;28.10;55.00;;;;;;5113601;28;20490;-77
2023/07/04 06:06:52;;;;;;;8.80;4.50;;;28.20;55.00;;;;;;5112951;28;20042;-77
2023/07/04 06:09:20;;;;;;;5.57;4.60;;;28.10;54.90;;;;;;5113810;28;20484;-78
2023/07/04 06:11:48;;;;;;;5.95;4.95;;;28.20;54.90;;;;;;5113599;28;20540;-77
2023/07/04 06:14:17;;;;;;;11.57;5.00;;;28.20;54.80;;;;;;5112033;28;20063;-77
2023/07/04 06:16:46;;;;;;;9.85;4.85;;;28.20;54.80;;;;;;5113698;28;20098;-78
2023/07/04 06:19:12;;;;;;;10.15;6.25;;;28.30;54.80;;;;;;5113332;28;20455;-77
2023/07/04 06:21:38;;;;;;;7.03;5.32;;;28.20;54.80;;;;;;5113646;27;20059;-77
2023/07/04 06:24:04;;;;;;;6.72;5.13;;;28.20;54.70;;;;;;5111531;28;20059;-77
2023/07/04 06:26:32;;;;;;;8.25;5.85;;;28.20;54.70;;;;;;5113483;28;20107;-77
2023/07/04 06:28:59;;;;;;;2.63;1.98;;;28.20;54.70;;;;;;5111997;28;20027;-78
2023/07/04 06:31:26;;;;;;;5.93;4.30;;;28.20;54.70;;;;;;5113615;28;20049;-77
2023/07/04 06:33:55;;;;;;;6.45;4.95;;;28.30;54.70;;;;;;5112212;28;20039;-77
2023/07/04 06:36:21;;;;;;;6.05;4.10;;;28.20;54.60;;;;;;5113051;27;20039;-77
2023/07/04 06:38:47;;;;;;;5.18;4.68;;;28.30;54.60;;;;;;5113181;27;20024;-77
2023/07/04 06:41:15;;;;;;;6.75;4.72;;;28.30;54.60;;;;;;5112900;28;20479;-77
2023/07/04 06:43:46;;;;;;;4.22;3.53;;;28.30;54.50;;;;;;5113065;28;20023;-77
2023/07/04 06:46:18;;;;;;;6.68;5.55;;;28.30;54.50;;;;;;5113091;28;20036;-77
2023/07/04 06:48:48;;;;;;;7.90;4.30;;;28.40;54.50;;;;;;5127656;27;20054;-78
2023/07/04 06:51:16;;;;;;;3.08;2.63;;;28.40;54.40;;;;;;5112826;28;20032;-77
2023/07/04 06:53:43;;;;;;;2.75;2.55;;;28.30;54.50;;;;;;5112922;28;20494;-78
2023/07/04 06:56:12;;;;;;;1.63;1.50;;;28.30;54.40;;;;;;5112872;28;20730;-77
2023/07/04 06:58:45;;;;;;;2.47;2.20;;;28.30;54.40;;;;;;5111522;28;20503;-77
2023/07/04 07:01:12;;;;;;;3.33;3.03;;;28.20;54.40;;;;;;5112555;28;20078;-77
2023/07/04 07:03:38;;;;;;;1.90;1.80;;;28.30;54.30;;;;;;5127430;27;20039;-78
2023/07/04 07:06:06;;;;;;;1.70;1.60;;;28.60;54.30;;;;;;5111075;28;20368;-77
2023/07/04 07:08:33;;;;;;;1.70;1.60;;;28.40;54.30;;;;;;5112561;28;20492;-77
2023/07/04 07:11:02;;;;;;;5.93;4.75;;;28.30;54.30;;;;;;5111033;28;20411;-77
2023/07/04 07:13:28;;;;;;;5.72;4.75;;;28.30;54.30;;;;;;5112608;28;20031;-77
2023/07/04 07:16:07;;;;;;;4.63;2.03;;;28.30;54.30;;;;;;5112613;28;20040;-77
2023/07/04 07:18:34;;;;;;;2.00;1.83;;;28.40;54.20;;;;;;5112558;28;20643;-77
2023/07/04 07:21:01;;;;;;;2.10;1.85;;;28.20;54.30;;;;;;5111940;28;20024;-77
2023/07/04 07:23:28;;;;;;;1.85;1.75;;;28.30;54.30;;;;;;5111179;28;20035;-77
2023/07/04 07:25:58;;;;;;;5.40;4.25;;;28.20;54.30;;;;;;5111426;28;20125;-77
2023/07/04 07:28:25;;;;;;;2.00;1.83;;;28.30;54.30;;;;;;5112287;28;20114;-77
2023/07/04 07:31:01;;;;;;;3.97;2.63;;;28.30;54.30;;;;;;5110787;28;20082;-77
2023/07/04 07:33:30;;;;;;;2.75;2.53;;;28.30;54.30;;;;;;5111927;28;20088;-77
2023/07/04 07:35:55;;;;;;;2.70;2.17;;;28.20;54.30;;;;;;5110142;28;20122;-77
2023/07/04 07:38:21;;;;;;;2.47;1.92;;;28.30;54.30;;;;;;5112125;28;20165;-77
2023/07/04 07:40:54;;;;;;;1.95;1.75;;;28.20;54.30;;;;;;5111817;28;20042;-77
2023/07/04 07:43:20;;;;;;;2.03;1.80;;;28.20;54.40;;;;;;5112056;28;20035;-77
2023/07/04 07:45:47;;;;;;;2.05;1.63;;;28.20;54.40;;;;;;5111737;28;20040;-77
2023/07/04 07:48:13;;;;;;;1.65;1.55;;;28.20;54.40;;;;;;5111743;28;20118;-77
2023/07/04 07:50:41;;;;;;;1.92;1.70;;;28.20;54.40;;;;;;5111667;28;20033;-77
2023/07/04 07:53:07;;;;;;;1.98;1.80;;;28.40;54.40;;;;;;5111807;28;20035;-77
2023/07/04 07:55:33;;;;;;;2.10;1.90;;;28.30;54.40;;;;;;5111791;28;20027;-77
2023/07/04 07:57:59;;;;;;;1.75;1.65;;;28.30;54.40;;;;;;5111876;28;20034;-77
2023/07/04 08:00:27;;;;;;;2.55;2.20;;;28.30;54.30;;;;;;5111594;28;20039;-77
2023/07/04 08:02:53;;;;;;;1.50;1.40;;;28.30;54.40;;;;;;5111838;28;20035;-77
2023/07/04 08:05:19;;;;;;;2.47;1.90;;;28.20;54.40;;;;;;5111916;28;20034;-77
2023/07/04 08:07:45;;;;;;;1.92;1.83;;;28.20;54.40;;;;;;5111854;28;20707;-78
2023/07/04 08:10:11;;;;;;;4.43;2.90;;;28.20;54.40;;;;;;5110246;28;20040;-77
2023/07/04 08:12:37;;;;;;;3.85;3.47;;;28.20;54.40;;;;;;5111772;28;20027;-77
2023/07/04 08:15:04;;;;;;;4.72;3.05;;;28.20;54.40;;;;;;5111383;28;20198;-77
2023/07/04 08:17:30;;;;;;;4.80;3.58;;;28.40;54.30;;;;;;5112345;28;20458;-77
2023/07/04 08:19:56;;;;;;;1.90;1.80;;;28.40;54.40;;;;;;5111466;28;20119;-77
2023/07/04 08:22:22;;;;;;;2.33;1.73;;;28.30;54.30;;;;;;5110393;28;20115;-77
2023/07/04 08:24:48;;;;;;;2.00;1.83;;;28.20;54.40;;;;;;5111717;28;20767;-76
2023/07/04 08:27:14;;;;;;;4.38;3.45;;;28.20;54.30;;;;;;5110338;28;20040;-77
2023/07/04 08:29:40;;;;;;;2.05;1.85;;;28.30;54.30;;;;;;5111488;28;20084;-77
2023/07/04 08:32:06;;;;;;;2.10;1.90;;;28.30;54.30;;;;;;5111437;28;20043;-77
2023/07/04 08:34:32;;;;;;;2.03;1.80;;;28.30;54.30;;;;;;5111543;28;20038;-77
2023/07/04 08:36:58;;;;;;;2.15;1.65;;;28.10;54.40;;;;;;5111444;28;20039;-76
2023/07/04 08:39:24;;;;;;;2.10;1.83;;;28.10;54.40;;;;;;5111363;28;20035;-77
2023/07/04 08:42:03;;;;;;;2.42;1.88;;;28.10;54.40;;;;;;5111490;28;20027;-77
2023/07/04 08:44:32;;;;;;;1.75;1.50;;;28.20;54.30;;;;;;5109765;28;20047;-77
2023/07/04 08:46:58;;;;;;;1.83;1.60;;;28.10;54.40;;;;;;5111353;28;20035;-77
2023/07/04 08:49:24;;;;;;;2.00;1.70;;;28.10;54.40;;;;;;5113836;28;20031;-77
2023/07/04 08:51:57;;;;;;;2.38;1.80;;;28.20;54.50;;;;;;5114979;28;20038;-77
2023/07/04 08:54:26;;;;;;;2.08;1.75;;;28.10;54.50;;;;;;5115222;28;20076;-78
2023/07/04 08:56:55;;;;;;;2.28;1.80;;;28.20;54.50;;;;;;5112664;28;20127;-77
2023/07/04 08:59:39;;;;;;;2.17;1.80;;;28.20;54.50;;;;;;5115014;28;20077;-77
2023/07/04 09:02:45;;;;;;;4.50;3.53;;;28.20;54.50;;;;;;5114767;27;20032;-77
2023/07/04 09:05:41;;;;;;;2.22;2.03;;;28.20;54.50;;;;;;5112926;28;20078;-77
2023/07/04 09:08:47;;;;;;;1.95;1.65;;;28.20;54.50;;;;;;5114931;28;20118;-77
2023/07/04 09:11:16;;;;;;;1.85;1.75;;;28.30;54.50;;;;;;5114611;28;20108;-77
2023/07/04 09:13:49;;;;;;;1.60;1.48;;;28.20;54.50;;;;;;5114888;28;20028;-77
2023/07/04 09:16:23;;;;;;;2.25;2.05;;;28.30;54.50;;;;;;5114824;28;20046;-77
2023/07/04 09:19:03;;;;;;;2.00;1.85;;;28.20;54.50;;;;;;5114859;28;20060;-77
2023/07/04 09:21:31;;;;;;;2.10;1.75;;;28.10;54.50;;;;;;5114454;28;20031;-77
2023/07/04 09:23:59;;;;;;;1.52;1.42;;;28.20;54.50;;;;;;5114616;28;20490;-77
2023/07/04 09:26:31;;;;;;;2.67;2.17;;;28.30;54.50;;;;;;5113200;28;20032;-77
2023/07/04 09:28:58;;;;;;;1.73;1.60;;;28.30;54.50;;;;;;5113531;28;20536;-77
2023/07/04 09:31:31;;;;;;;1.95;1.75;;;28.20;54.50;;;;;;5114181;28;20482;-77
2023/07/04 09:34:02;;;;;;;5.03;3.92;;;28.20;54.50;;;;;;5113151;28;20099;-75
2023/07/04 09:36:33;;;;;;;3.72;2.95;;;28.20;54.50;;;;;;5114409;28;20471;-77
2023/07/04 09:39:03;;;;;;;4.38;3.15;;;28.10;54.50;;;;;;5114486;28;20038;-76
2023/07/04 09:41:32;;;;;;;3.53;2.83;;;28.20;54.50;;;;;;5114214;28;20387;-77
2023/07/04 09:44:33;;;;;;;2.70;1.83;;;28.20;54.50;;;;;;5114405;28;20052;-77
2023/07/04 09:47:01;;;;;;;6.50;4.75;;;28.20;54.50;;;;;;5096064;28;20433;-77
2023/07/04 09:49:31;;;;;;;2.72;2.40;;;28.00;54.50;;;;;;5114173;27;20128;-77
2023/07/04 09:52:19;;;;;;;2.28;2.08;;;28.20;54.50;;;;;;5113977;28;20153;-77
2023/07/04 09:55:09;;;;;;;2.63;2.42;;;28.10;54.50;;;;;;5113931;28;20031;-77
2023/07/04 09:57:35;;;;;;;1.73;1.55;;;28.20;54.50;;;;;;5114209;28;20028;-77
2023/07/04 10:00:20;;;;;;;3.65;2.85;;;28.10;54.60;;;;;;5113227;28;20034;-77
2023/07/04 10:02:52;;;;;;;1.80;1.70;;;28.20;54.60;;;;;;5113889;28;20027;-77
2023/07/04 10:05:31;;;;;;;2.85;1.95;;;28.00;54.70;;;;;;5113701;28;20110;-77
2023/07/04 10:08:08;;;;;;;2.65;2.20;;;28.20;54.60;;;;;;5113753;28;20361;-76
2023/07/04 10:10:58;;;;;;;2.03;1.83;;;28.30;54.70;;;;;;5113602;28;20119;-76
2023/07/04 10:13:33;;;;;;;5.75;4.15;;;28.20;54.70;;;;;;5112356;28;20448;-77
2023/07/04 10:15:59;;;;;;;3.67;3.33;;;28.20;54.60;;;;;;5113409;28;20134;-78
2023/07/04 10:18:27;;;;;;;3.35;1.98;;;28.30;54.60;;;;;;5113776;28;20042;-78
2023/07/04 10:20:55;;;;;;;3.70;3.22;;;28.20;54.60;;;;;;5113507;28;20059;-79
2023/07/04 10:23:22;;;;;;;1.90;1.67;;;28.20;54.60;;;;;;5113286;28;20148;-78
2023/07/04 10:25:53;;;;;;;4.95;4.28;;;28.30;54.60;;;;;;5112094;28;20031;-78
2023/07/04 10:28:25;;;;;;;1.83;1.60;;;28.10;54.60;;;;;;5111849;28;20498;-79
2023/07/04 10:30:57;;;;;;;3.95;2.78;;;28.20;54.60;;;;;;5113255;28;20019;-78
2023/07/04 10:33:47;;;;;;;4.78;3.72;;;28.20;54.60;;;;;;5127950;27;20040;-78
2023/07/04 10:36:18;;;;;;;2.47;2.10;;;28.20;54.60;;;;;;5070090;28;20209;-78
2023/07/04 10:38:50;;;;;;;1.90;1.80;;;28.10;54.60;;;;;;5069929;28;20044;-78
2023/07/04 10:41:39;;;;;;;1.70;1.58;;;28.30;54.60;;;;;;5069949;28;20491;-78
2023/07/04 10:44:22;;;;;;;2.33;2.05;;;28.20;54.60;;;;;;5069772;28;20056;-78
2023/07/04 10:46:51;;;;;;;5.32;3.50;;;28.10;54.60;;;;;;5069890;28;20040;-78
2023/07/04 10:49:20;;;;;;;4.70;3.45;;;28.10;54.60;;;;;;5069840;28;20047;-78
2023/07/04 10:51:51;;;;;;;2.25;1.95;;;28.00;54.60;;;;;;5069659;28;20048;-78
2023/07/04 10:54:19;;;;;;;2.90;2.22;;;28.30;54.70;;;;;;5069737;28;20104;-78
2023/07/04 10:56:51;;;;;;;1.92;1.80;;;28.20;54.70;;;;;;5069660;28;20404;-78
2023/07/04 10:59:33;;;;;;;2.40;2.20;;;28.30;54.70;;;;;;5069671;28;20091;-78
2023/07/04 11:02:27;;;;;;;3.38;1.55;;;28.10;54.70;;;;;;5069394;28;20499;-78
2023/07/04 11:04:58;;;;;;;2.65;2.20;;;28.10;54.70;;;;;;5069690;28;20040;-78
2023/07/04 11:07:27;;;;;;;2.63;2.13;;;28.10;54.80;;;;;;5069523;28;20438;-79
2023/07/04 11:09:56;;;;;;;1.70;1.60;;;28.20;54.70;;;;;;5069378;28;20050;-78
2023/07/04 11:12:26;;;;;;;2.25;1.95;;;28.10;54.70;;;;;;5073772;28;20044;-79
2023/07/04 11:14:59;;;;;;;4.72;3.78;;;28.20;54.80;;;;;;5112482;28;20055;-79
2023/07/04 11:17:27;;;;;;;2.28;2.05;;;28.10;54.80;;;;;;5112284;27;20391;-78
2023/07/04 11:20:11;;;;;;;2.78;2.47;;;28.20;54.80;;;;;;5112443;28;20549;-78
2023/07/04 11:22:45;;;;;;;3.60;1.52;;;28.20;54.80;;;;;;5112118;28;20031;-78
2023/07/04 11:25:30;;;;;;;5.18;3.80;;;28.20;54.80;;;;;;5112460;28;20082;-78
2023/07/04 11:28:18;;;;;;;2.45;2.00;;;28.20;54.80;;;;;;5110979;28;20031;-78
2023/07/04 11:30:48;;;;;;;1.63;1.52;;;28.10;54.70;;;;;;5111982;28;20486;-79
2023/07/04 11:34:03;;;;;;;3.33;3.03;;;28.10;54.70;;;;;;5112289;28;20448;-79
2023/07/04 11:36:36;;;;;;;2.15;1.92;;;28.10;54.70;;;;;;5052079;28;20127;-79
2023/07/04 11:39:28;;;;;;;1.73;1.63;;;28.20;54.70;;;;;;5069190;28;20092;-78
2023/07/04 11:41:55;;;;;;;3.67;2.17;;;28.10;54.80;;;;;;5069005;28;20055;-78
2023/07/04 11:44:28;;;;;;;2.40;1.92;;;28.20;54.80;;;;;;5068982;28;20052;-78
2023/07/04 11:47:00;;;;;;;;;;;28.10;54.80;;;;;;5069405;28;20037;-79
2023/07/04 11:49:28;;;;;;;2.25;2.05;;;28.10;54.80;;;;;;5052077;28;19915;-78
2023/07/04 11:52:03;;;;;;;2.35;1.95;;;28.10;54.70;;;;;;5068836;28;20115;-78
2023/07/04 11:54:30;;;;;;;3.10;2.13;;;28.00;54.80;;;;;;5068797;28;20048;-78
2023/07/04 11:56:56;;;;;;;1.85;1.65;;;28.20;54.80;;;;;;5052107;28;20480;-78
2023/07/04 11:59:23;;;;;;;2.13;1.95;;;28.20;54.80;;;;;;5068932;28;20040;-78
2023/07/04 12:01:51;;;;;;;1.70;1.60;;;28.10;54.80;;;;;;5068684;28;20041;-78
2023/07/04 12:04:43;;;;;;;1.88;1.77;;;28.20;54.80;;;;;;5068764;28;20049;-78
2023/07/04 12:07:28;;;;;;;1.80;1.70;;;28.10;54.80;;;;;;5068778;28;20477;-76
2023/07/04 12:10:17;;;;;;;2.13;1.85;;;28.20;54.80;;;;;;5052104;28;20614;-76
2023/07/04 12:12:44;;;;;;;2.30;1.90;;;28.10;54.80;;;;;;5084190;28;20052;-76
2023/07/04 12:15:14;;;;;;;1.58;1.48;;;28.20;54.80;;;;;;5111822;28;20135;-76
2023/07/04 12:17:45;;;;;;;2.40;2.08;;;28.10;54.90;;;;;;5110309;28;20085;-76
2023/07/04 12:20:16;;;;;;;2.47;2.28;;;28.20;54.90;;;;;;5110603;28;20372;-76
2023/07/04 12:22:48;;;;;;;6.05;3.17;;;28.20;54.80;;;;;;5112556;28;20027;-76
2023/07/04 12:25:32;;;;;;;2.00;1.80;;;28.20;54.80;;;;;;5115900;28;20108;-76
2023/07/04 12:28:02;;;;;;;2.15;1.95;;;28.10;54.80;;;;;;5115569;28;20531;-76
2023/07/04 12:30:28;;;;;;;3.63;3.22;;;28.20;54.80;;;;;;5115819;28;20110;-76
2023/07/04 12:32:55;;;;;;;1.83;1.73;;;28.20;54.80;;;;;;5115274;28;20122;-76
2023/07/04 12:35:31;;;;;;;2.13;1.83;;;28.10;54.80;;;;;;5115499;28;20475;-76
2023/07/04 12:37:58;;;;;;;1.92;1.73;;;28.10;54.80;;;;;;5115579;28;20035;-76
2023/07/04 12:40:30;;;;;;;1.70;1.60;;;28.20;54.80;;;;;;5115719;28;20026;-76
2023/07/04 12:43:03;;;;;;;4.47;4.05;;;28.00;54.80;;;;;;5115391;28;20470;-78
2023/07/04 12:45:29;;;;;;;2.13;1.95;;;28.20;54.90;;;;;;5112871;28;20082;-78
2023/07/04 12:48:04;;;;;;;2.25;2.03;;;28.10;54.80;;;;;;5115285;28;20493;-78
2023/07/04 12:50:31;;;;;;;2.10;1.83;;;28.20;54.80;;;;;;5115452;28;20445;-78
2023/07/04 12:52:59;;;;;;;1.80;1.70;;;28.10;54.80;;;;;;5115288;28;20027;-78
2023/07/04 12:55:36;;;;;;;1.90;1.80;;;28.00;54.80;;;;;;5115434;28;20032;-78
2023/07/04 12:58:05;;;;;;;2.55;2.20;;;28.10;54.90;;;;;;5114997;28;20043;-78
2023/07/04 13:00:35;;;;;;;2.30;2.08;;;28.10;54.90;;;;;;5113807;28;20493;-78